sensor_id;sensor_type;location;lat;lon;timestamp;pressure;altitude;pressure_sealevel;temperature;humidity
76940;BME280;65885;55.848;35.916;2023-07-22T00:00:03;98675.66;;;12.98;68.27
76940;BME280;65885;55.848;35.916;2023-07-22T00:02:35;98674.94;;;12.96;67.87
76940;BME280;65885;55.848;35.916;2023-07-22T00:05:02;98678.50;;;12.95;68.54
76940;BME280;65885;55.848;35.916;2023-07-22T00:07:30;98679.56;;;12.93;67.97
76940;BME280;65885;55.848;35.916;2023-07-22T00:09:57;98672.56;;;12.92;68.43
76940;BME280;65885;55.848;35.916;2023-07-22T00:12:26;98675.31;;;12.90;68.73
76940;BME280;65885;55.848;35.916;2023-07-22T00:14:54;98677.22;;;12.88;68.18
76940;BME280;65885;55.848;35.916;2023-07-22T00:17:21;98680.88;;;12.86;68.29
76940;BME280;65885;55.848;35.916;2023-07-22T00:19:50;98675.81;;;12.83;68.36
76940;BME280;65885;55.848;35.916;2023-07-22T00:22:18;98678.63;;;12.80;68.77
76940;BME280;65885;55.848;35.916;2023-07-22T00:24:46;98671.75;;;12.77;68.46
76940;BME280;65885;55.848;35.916;2023-07-22T00:27:13;98673.75;;;12.73;68.69
76940;BME280;65885;55.848;35.916;2023-07-22T00:29:42;98687.13;;;12.70;68.53
76940;BME280;65885;55.848;35.916;2023-07-22T00:32:10;98674.97;;;12.68;68.52
76940;BME280;65885;55.848;35.916;2023-07-22T00:34:37;98677.72;;;12.66;68.74
76940;BME280;65885;55.848;35.916;2023-07-22T00:37:04;98684.75;;;12.66;68.88
76940;BME280;65885;55.848;35.916;2023-07-22T00:39:32;98687.50;;;12.64;68.98
76940;BME280;65885;55.848;35.916;2023-07-22T00:41:59;98689.16;;;12.65;69.25
76940;BME280;65885;55.848;35.916;2023-07-22T00:44:27;98689.06;;;12.67;69.16
76940;BME280;65885;55.848;35.916;2023-07-22T00:46:57;98684.56;;;12.69;69.56
76940;BME280;65885;55.848;35.916;2023-07-22T00:49:26;98689.63;;;12.72;69.86
76940;BME280;65885;55.848;35.916;2023-07-22T00:51:53;98694.59;;;12.76;69.57
76940;BME280;65885;55.848;35.916;2023-07-22T00:54:21;98690.00;;;12.80;69.90
76940;BME280;65885;55.848;35.916;2023-07-22T00:56:49;98688.78;;;12.86;69.86
76940;BME280;65885;55.848;35.916;2023-07-22T00:59:16;98686.69;;;12.91;70.12
76940;BME280;65885;55.848;35.916;2023-07-22T01:01:44;98694.31;;;12.95;70.42
76940;BME280;65885;55.848;35.916;2023-07-22T01:04:15;98694.88;;;13.00;70.52
76940;BME280;65885;55.848;35.916;2023-07-22T01:06:43;98699.81;;;13.05;70.11
76940;BME280;65885;55.848;35.916;2023-07-22T01:09:11;98701.34;;;13.09;70.01
76940;BME280;65885;55.848;35.916;2023-07-22T01:11:39;98703.75;;;13.12;69.90
76940;BME280;65885;55.848;35.916;2023-07-22T01:14:06;98703.66;;;13.14;70.18
76940;BME280;65885;55.848;35.916;2023-07-22T01:16:34;98714.84;;;13.17;70.12
76940;BME280;65885;55.848;35.916;2023-07-22T01:19:03;98720.84;;;13.19;69.81
76940;BME280;65885;55.848;35.916;2023-07-22T01:21:33;98713.72;;;13.21;70.05
76940;BME280;65885;55.848;35.916;2023-07-22T01:24:03;98718.91;;;13.23;70.07
76940;BME280;65885;55.848;35.916;2023-07-22T01:26:30;98717.88;;;13.25;70.11
76940;BME280;65885;55.848;35.916;2023-07-22T01:29:05;98715.13;;;13.27;69.86
76940;BME280;65885;55.848;35.916;2023-07-22T01:31:34;98715.03;;;13.28;69.87
76940;BME280;65885;55.848;35.916;2023-07-22T01:34:02;98721.13;;;13.29;69.55
76940;BME280;65885;55.848;35.916;2023-07-22T01:36:30;98721.06;;;13.30;69.61
76940;BME280;65885;55.848;35.916;2023-07-22T01:38:58;98720.28;;;13.28;69.93
76940;BME280;65885;55.848;35.916;2023-07-22T01:41:27;98721.13;;;13.29;69.55
76940;BME280;65885;55.848;35.916;2023-07-22T01:43:55;98724.81;;;13.26;69.31
76940;BME280;65885;55.848;35.916;2023-07-22T01:46:22;98732.81;;;13.25;69.42
76940;BME280;65885;55.848;35.916;2023-07-22T01:48:50;98733.78;;;13.24;69.30
76940;BME280;65885;55.848;35.916;2023-07-22T01:51:17;98726.91;;;13.21;69.18
76940;BME280;65885;55.848;35.916;2023-07-22T01:53:44;98733.19;;;13.19;69.61
76940;BME280;65885;55.848;35.916;2023-07-22T01:56:12;98732.53;;;13.15;69.60
76940;BME280;65885;55.848;35.916;2023-07-22T01:58:40;98731.88;;;13.12;69.14
76940;BME280;65885;55.848;35.916;2023-07-22T02:01:08;98736.56;;;13.06;69.14
76940;BME280;65885;55.848;35.916;2023-07-22T02:03:38;98734.25;;;13.02;69.47
76940;BME280;65885;55.848;35.916;2023-07-22T02:06:06;98738.00;;;12.98;69.07
76940;BME280;65885;55.848;35.916;2023-07-22T02:08:33;98736.41;;;12.95;69.23
76940;BME280;65885;55.848;35.916;2023-07-22T02:11:03;98751.47;;;12.93;69.51
76940;BME280;65885;55.848;35.916;2023-07-22T02:13:31;98754.16;;;12.92;69.57
76940;BME280;65885;55.848;35.916;2023-07-22T02:16:01;98752.41;;;12.92;69.69
76940;BME280;65885;55.848;35.916;2023-07-22T02:18:29;98754.75;;;12.97;70.27
76940;BME280;65885;55.848;35.916;2023-07-22T02:20:57;98754.56;;;13.00;70.64
76940;BME280;65885;55.848;35.916;2023-07-22T02:23:24;98752.47;;;13.05;70.57
76940;BME280;65885;55.848;35.916;2023-07-22T02:25:52;98760.72;;;13.13;71.06
76940;BME280;65885;55.848;35.916;2023-07-22T02:28:20;98754.06;;;13.22;71.29
76940;BME280;65885;55.848;35.916;2023-07-22T02:30:50;98760.56;;;13.30;71.32
76940;BME280;65885;55.848;35.916;2023-07-22T02:33:20;98751.34;;;13.38;71.06
76940;BME280;65885;55.848;35.916;2023-07-22T02:35:48;98758.63;;;13.47;71.17
76940;BME280;65885;55.848;35.916;2023-07-22T02:38:16;98760.69;;;13.56;71.50
76940;BME280;65885;55.848;35.916;2023-07-22T02:40:43;98754.81;;;13.65;71.51
76940;BME280;65885;55.848;35.916;2023-07-22T02:43:11;98748.19;;;13.72;71.25
76940;BME280;65885;55.848;35.916;2023-07-22T02:45:38;98749.38;;;13.81;71.20
76940;BME280;65885;55.848;35.916;2023-07-22T02:48:06;98746.22;;;13.88;71.33
76940;BME280;65885;55.848;35.916;2023-07-22T02:50:35;98744.88;;;13.96;71.43
76940;BME280;65885;55.848;35.916;2023-07-22T02:53:02;98752.38;;;14.02;71.13
76940;BME280;65885;55.848;35.916;2023-07-22T02:55:30;98751.03;;;14.09;71.19
76940;BME280;65885;55.848;35.916;2023-07-22T02:57:57;98742.91;;;14.12;70.82
76940;BME280;65885;55.848;35.916;2023-07-22T03:00:25;98738.28;;;14.15;70.61
76940;BME280;65885;55.848;35.916;2023-07-22T03:02:55;98737.22;;;14.18;70.49
76940;BME280;65885;55.848;35.916;2023-07-22T03:05:29;98742.38;;;14.20;70.21
76940;BME280;65885;55.848;35.916;2023-07-22T03:07:58;98737.94;;;14.20;70.06
76940;BME280;65885;55.848;35.916;2023-07-22T03:10:25;98737.03;;;14.21;70.11
76940;BME280;65885;55.848;35.916;2023-07-22T03:12:55;98747.47;;;14.23;69.86
76940;BME280;65885;55.848;35.916;2023-07-22T03:15:25;98737.75;;;14.23;69.92
76940;BME280;65885;55.848;35.916;2023-07-22T03:17:54;98738.59;;;14.24;69.86
76940;BME280;65885;55.848;35.916;2023-07-22T03:20:25;98748.41;;;14.22;69.79
76940;BME280;65885;55.848;35.916;2023-07-22T03:22:52;98751.91;;;14.22;69.53
76940;BME280;65885;55.848;35.916;2023-07-22T03:25:22;98749.25;;;14.22;69.62
76940;BME280;65885;55.848;35.916;2023-07-22T03:27:49;98744.94;;;14.21;69.76
76940;BME280;65885;55.848;35.916;2023-07-22T03:30:18;98744.00;;;14.22;69.70
76940;BME280;65885;55.848;35.916;2023-07-22T03:32:46;98752.75;;;14.23;69.88
76940;BME280;65885;55.848;35.916;2023-07-22T03:35:16;98741.25;;;14.24;69.79
76940;BME280;65885;55.848;35.916;2023-07-22T03:37:44;98740.28;;;14.25;70.05
76940;BME280;65885;55.848;35.916;2023-07-22T03:40:11;98740.94;;;14.41;70.70
76940;BME280;65885;55.848;35.916;2023-07-22T03:42:44;98753.41;;;14.77;71.29
76940;BME280;65885;55.848;35.916;2023-07-22T03:45:12;98746.38;;;15.27;70.82
76940;BME280;65885;55.848;35.916;2023-07-22T03:47:40;98751.47;;;15.78;69.39
76940;BME280;65885;55.848;35.916;2023-07-22T03:50:08;98746.59;;;16.31;68.12
76940;BME280;65885;55.848;35.916;2023-07-22T03:52:35;98750.09;;;16.78;66.81
76940;BME280;65885;55.848;35.916;2023-07-22T03:55:03;98754.50;;;17.22;65.76
76940;BME280;65885;55.848;35.916;2023-07-22T03:57:32;98759.84;;;17.65;64.40
76940;BME280;65885;55.848;35.916;2023-07-22T04:00:01;98750.44;;;18.05;63.63
76940;BME280;65885;55.848;35.916;2023-07-22T04:02:30;98755.16;;;18.43;62.45
76940;BME280;65885;55.848;35.916;2023-07-22T04:04:58;98751.63;;;18.74;61.50
76940;BME280;65885;55.848;35.916;2023-07-22T04:07:25;98748.25;;;19.03;60.72
76940;BME280;65885;55.848;35.916;2023-07-22T04:09:52;98752.81;;;19.31;60.27
76940;BME280;65885;55.848;35.916;2023-07-22T04:12:20;98751.38;;;19.58;59.36
76940;BME280;65885;55.848;35.916;2023-07-22T04:14:47;98756.47;;;19.80;58.88
76940;BME280;65885;55.848;35.916;2023-07-22T04:17:16;98745.81;;;20.00;58.01
76940;BME280;65885;55.848;35.916;2023-07-22T04:19:43;98753.38;;;20.14;57.88
76940;BME280;65885;55.848;35.916;2023-07-22T04:22:11;98751.81;;;20.31;57.14
76940;BME280;65885;55.848;35.916;2023-07-22T04:24:39;98757.28;;;20.48;56.87
76940;BME280;65885;55.848;35.916;2023-07-22T04:27:06;98761.88;;;20.66;56.54
76940;BME280;65885;55.848;35.916;2023-07-22T04:29:35;98763.78;;;20.83;56.28
76940;BME280;65885;55.848;35.916;2023-07-22T04:32:02;98766.38;;;21.02;55.77
76940;BME280;65885;55.848;35.916;2023-07-22T04:34:31;98771.78;;;21.20;55.55
76940;BME280;65885;55.848;35.916;2023-07-22T04:36:59;98776.50;;;21.36;54.94
76940;BME280;65885;55.848;35.916;2023-07-22T04:39:27;98761.81;;;21.50;55.02
76940;BME280;65885;55.848;35.916;2023-07-22T04:41:54;98767.50;;;21.65;54.35
76940;BME280;65885;55.848;35.916;2023-07-22T04:44:22;98768.97;;;21.77;53.52
76940;BME280;65885;55.848;35.916;2023-07-22T04:46:49;98768.91;;;21.86;53.28
76940;BME280;65885;55.848;35.916;2023-07-22T04:49:17;98777.50;;;21.98;52.94
76940;BME280;65885;55.848;35.916;2023-07-22T04:51:46;98777.31;;;22.09;52.80
76940;BME280;65885;55.848;35.916;2023-07-22T04:54:14;98786.09;;;22.20;52.47
76940;BME280;65885;55.848;35.916;2023-07-22T04:56:42;98777.31;;;22.27;52.47
76940;BME280;65885;55.848;35.916;2023-07-22T04:59:09;98770.34;;;22.34;52.05
76940;BME280;65885;55.848;35.916;2023-07-22T05:01:39;98775.25;;;22.39;52.29
76940;BME280;65885;55.848;35.916;2023-07-22T05:04:06;98772.63;;;22.47;52.68
76940;BME280;65885;55.848;35.916;2023-07-22T05:06:33;98775.19;;;22.57;52.13
76940;BME280;65885;55.848;35.916;2023-07-22T05:09:03;98768.22;;;22.64;51.09
76940;BME280;65885;55.848;35.916;2023-07-22T05:11:30;98771.28;;;22.69;50.44
76940;BME280;65885;55.848;35.916;2023-07-22T05:13:58;98778.81;;;22.74;50.10
76940;BME280;65885;55.848;35.916;2023-07-22T05:16:44;98776.50;;;22.79;50.69
76940;BME280;65885;55.848;35.916;2023-07-22T05:19:11;98770.53;;;22.85;51.12
76940;BME280;65885;55.848;35.916;2023-07-22T05:21:39;98776.88;;;22.84;50.29
76940;BME280;65885;55.848;35.916;2023-07-22T05:24:08;98771.56;;;22.66;49.56
76940;BME280;65885;55.848;35.916;2023-07-22T05:26:36;98776.53;;;22.35;49.90
76940;BME280;65885;55.848;35.916;2023-07-22T05:29:03;98777.50;;;21.98;50.48
76940;BME280;65885;55.848;35.916;2023-07-22T05:31:31;98773.59;;;21.57;51.43
76940;BME280;65885;55.848;35.916;2023-07-22T05:33:59;98777.94;;;21.21;52.41
76940;BME280;65885;55.848;35.916;2023-07-22T05:36:26;98778.50;;;20.87;53.39
76940;BME280;65885;55.848;35.916;2023-07-22T05:38:53;98782.22;;;20.57;54.24
76940;BME280;65885;55.848;35.916;2023-07-22T05:41:22;98778.44;;;20.31;55.06
76940;BME280;65885;55.848;35.916;2023-07-22T05:43:50;98776.78;;;20.10;55.96
76940;BME280;65885;55.848;35.916;2023-07-22T05:46:17;98773.97;;;19.92;56.76
76940;BME280;65885;55.848;35.916;2023-07-22T05:48:44;98782.09;;;19.81;57.37
76940;BME280;65885;55.848;35.916;2023-07-22T05:51:12;98776.63;;;19.73;58.03
76940;BME280;65885;55.848;35.916;2023-07-22T05:53:40;98769.03;;;19.78;58.93
76940;BME280;65885;55.848;35.916;2023-07-22T05:56:08;98776.50;;;20.04;59.32
76940;BME280;65885;55.848;35.916;2023-07-22T05:58:37;98774.91;;;20.40;58.00
76940;BME280;65885;55.848;35.916;2023-07-22T06:01:04;98776.00;;;20.76;57.45
76940;BME280;65885;55.848;35.916;2023-07-22T06:03:31;98786.16;;;21.10;56.77
76940;BME280;65885;55.848;35.916;2023-07-22T06:05:59;98771.00;;;21.38;55.89
76940;BME280;65885;55.848;35.916;2023-07-22T06:08:26;98772.84;;;21.65;56.04
76940;BME280;65885;55.848;35.916;2023-07-22T06:10:54;98775.06;;;21.87;56.00
76940;BME280;65885;55.848;35.916;2023-07-22T06:13:21;98773.22;;;22.05;55.67
76940;BME280;65885;55.848;35.916;2023-07-22T06:15:51;98769.22;;;22.19;55.75
76940;BME280;65885;55.848;35.916;2023-07-22T06:18:38;98773.50;;;22.30;55.97
76940;BME280;65885;55.848;35.916;2023-07-22T06:21:05;98767.91;;;22.41;56.36
76940;BME280;65885;55.848;35.916;2023-07-22T06:23:33;98764.81;;;22.54;56.28
76940;BME280;65885;55.848;35.916;2023-07-22T06:26:00;98766.09;;;22.67;56.38
76940;BME280;65885;55.848;35.916;2023-07-22T06:28:28;98766.50;;;22.81;55.98
76940;BME280;65885;55.848;35.916;2023-07-22T06:30:57;98765.09;;;22.94;56.43
76940;BME280;65885;55.848;35.916;2023-07-22T06:33:25;98763.03;;;23.14;56.45
76940;BME280;65885;55.848;35.916;2023-07-22T06:35:52;98758.41;;;23.33;55.22
76940;BME280;65885;55.848;35.916;2023-07-22T06:38:19;98757.47;;;23.50;54.92
76940;BME280;65885;55.848;35.916;2023-07-22T06:40:47;98755.03;;;23.65;54.42
76940;BME280;65885;55.848;35.916;2023-07-22T06:43:14;98753.25;;;23.82;53.68
76940;BME280;65885;55.848;35.916;2023-07-22T06:45:42;98755.13;;;23.97;53.08
76940;BME280;65885;55.848;35.916;2023-07-22T06:48:11;98747.06;;;24.14;51.83
76940;BME280;65885;55.848;35.916;2023-07-22T06:50:38;98753.63;;;24.27;50.88
76940;BME280;65885;55.848;35.916;2023-07-22T06:53:05;98762.19;;;24.39;49.55
76940;BME280;65885;55.848;35.916;2023-07-22T06:55:33;98758.47;;;24.48;49.67
76940;BME280;65885;55.848;35.916;2023-07-22T06:58:00;98757.63;;;24.56;49.14
76940;BME280;65885;55.848;35.916;2023-07-22T07:00:28;98762.31;;;24.62;49.18
76940;BME280;65885;55.848;35.916;2023-07-22T07:02:55;98760.63;;;24.69;49.37
76940;BME280;65885;55.848;35.916;2023-07-22T07:05:24;98766.50;;;24.73;49.23
76940;BME280;65885;55.848;35.916;2023-07-22T07:07:51;98773.03;;;24.78;49.61
76940;BME280;65885;55.848;35.916;2023-07-22T07:10:19;98763.28;;;24.85;49.15
76940;BME280;65885;55.848;35.916;2023-07-22T07:12:46;98765.94;;;24.94;49.04
76940;BME280;65885;55.848;35.916;2023-07-22T07:15:14;98766.44;;;24.97;48.10
76940;BME280;65885;55.848;35.916;2023-07-22T07:17:41;98766.63;;;24.96;46.91
76940;BME280;65885;55.848;35.916;2023-07-22T07:20:09;98766.94;;;24.92;47.78
76940;BME280;65885;55.848;35.916;2023-07-22T07:22:38;98774.00;;;24.94;47.85
76940;BME280;65885;55.848;35.916;2023-07-22T07:25:07;98768.31;;;24.97;46.45
76940;BME280;65885;55.848;35.916;2023-07-22T07:27:34;98765.94;;;24.94;45.78
76940;BME280;65885;55.848;35.916;2023-07-22T07:30:02;98771.66;;;24.90;46.05
76940;BME280;65885;55.848;35.916;2023-07-22T07:32:32;98767.31;;;24.89;45.94
76940;BME280;65885;55.848;35.916;2023-07-22T07:34:59;98763.63;;;24.90;45.26
76940;BME280;65885;55.848;35.916;2023-07-22T07:37:29;98763.25;;;24.94;45.43
76940;BME280;65885;55.848;35.916;2023-07-22T07:39:59;98767.28;;;24.98;45.51
76940;BME280;65885;55.848;35.916;2023-07-22T07:42:26;98765.25;;;25.00;45.76
76940;BME280;65885;55.848;35.916;2023-07-22T07:44:54;98768.63;;;25.10;46.20
76940;BME280;65885;55.848;35.916;2023-07-22T07:47:21;98777.31;;;25.20;46.27
76940;BME280;65885;55.848;35.916;2023-07-22T07:49:49;98768.53;;;25.34;45.83
76940;BME280;65885;55.848;35.916;2023-07-22T07:52:16;98776.88;;;25.48;45.56
76940;BME280;65885;55.848;35.916;2023-07-22T07:54:43;98773.44;;;25.62;45.30
76940;BME280;65885;55.848;35.916;2023-07-22T07:57:12;98776.72;;;25.80;45.63
76940;BME280;65885;55.848;35.916;2023-07-22T07:59:40;98767.84;;;26.03;45.27
76940;BME280;65885;55.848;35.916;2023-07-22T08:02:07;98780.44;;;26.25;44.74
76940;BME280;65885;55.848;35.916;2023-07-22T08:04:36;98776.94;;;26.47;45.50
76940;BME280;65885;55.848;35.916;2023-07-22T08:07:06;98778.38;;;26.73;45.09
76940;BME280;65885;55.848;35.916;2023-07-22T08:09:34;98793.28;;;26.98;44.86
76940;BME280;65885;55.848;35.916;2023-07-22T08:12:02;98787.91;;;27.28;44.22
76940;BME280;65885;55.848;35.916;2023-07-22T08:14:31;98783.69;;;27.70;44.20
76940;BME280;65885;55.848;35.916;2023-07-22T08:16:58;98782.47;;;28.08;42.79
76940;BME280;65885;55.848;35.916;2023-07-22T08:19:25;98779.03;;;28.36;42.35
76940;BME280;65885;55.848;35.916;2023-07-22T08:21:53;98785.03;;;28.59;41.51
76940;BME280;65885;55.848;35.916;2023-07-22T08:24:21;98785.53;;;28.69;40.33
76940;BME280;65885;55.848;35.916;2023-07-22T08:26:48;98777.69;;;28.74;40.93
76940;BME280;65885;55.848;35.916;2023-07-22T08:29:16;98782.72;;;28.84;40.84
76940;BME280;65885;55.848;35.916;2023-07-22T08:31:45;98799.00;;;28.91;40.38
76940;BME280;65885;55.848;35.916;2023-07-22T08:34:12;98791.25;;;28.81;39.52
76940;BME280;65885;55.848;35.916;2023-07-22T08:36:40;98780.59;;;28.73;38.82
76940;BME280;65885;55.848;35.916;2023-07-22T08:39:08;98784.91;;;28.67;39.36
76940;BME280;65885;55.848;35.916;2023-07-22T08:41:36;98781.56;;;28.65;39.83
76940;BME280;65885;55.848;35.916;2023-07-22T08:44:04;98774.09;;;28.67;40.35
76940;BME280;65885;55.848;35.916;2023-07-22T08:46:33;98783.28;;;28.73;40.70
76940;BME280;65885;55.848;35.916;2023-07-22T08:49:04;98786.41;;;28.77;39.98
76940;BME280;65885;55.848;35.916;2023-07-22T08:51:33;98789.38;;;28.82;40.47
76940;BME280;65885;55.848;35.916;2023-07-22T08:54:03;98792.38;;;28.93;40.82
76940;BME280;65885;55.848;35.916;2023-07-22T08:56:30;98782.13;;;29.10;39.46
76940;BME280;65885;55.848;35.916;2023-07-22T08:58:59;98788.66;;;29.29;38.75
76940;BME280;65885;55.848;35.916;2023-07-22T09:01:27;98787.47;;;29.45;38.64
76940;BME280;65885;55.848;35.916;2023-07-22T09:03:55;98791.34;;;29.64;37.83
76940;BME280;65885;55.848;35.916;2023-07-22T09:06:25;98791.41;;;29.83;36.55
76940;BME280;65885;55.848;35.916;2023-07-22T09:08:53;98797.06;;;29.95;36.11
76940;BME280;65885;55.848;35.916;2023-07-22T09:11:21;98800.19;;;29.99;35.96
76940;BME280;65885;55.848;35.916;2023-07-22T09:13:51;98798.75;;;30.03;34.97
76940;BME280;65885;55.848;35.916;2023-07-22T09:16:20;98798.75;;;30.03;34.18
76940;BME280;65885;55.848;35.916;2023-07-22T09:18:48;98797.13;;;30.08;34.60
76940;BME280;65885;55.848;35.916;2023-07-22T09:21:16;98800.47;;;30.17;33.86
76940;BME280;65885;55.848;35.916;2023-07-22T09:23:46;98801.94;;;30.20;33.18
76940;BME280;65885;55.848;35.916;2023-07-22T09:26:16;98802.53;;;30.15;33.51
76940;BME280;65885;55.848;35.916;2023-07-22T09:28:50;98811.06;;;30.12;32.48
76940;BME280;65885;55.848;35.916;2023-07-22T09:31:18;98804.38;;;30.01;31.85
76940;BME280;65885;55.848;35.916;2023-07-22T09:33:45;98808.91;;;29.88;31.83
76940;BME280;65885;55.848;35.916;2023-07-22T09:36:13;98804.28;;;29.75;32.16
76940;BME280;65885;55.848;35.916;2023-07-22T09:38:41;98806.56;;;29.71;32.47
76940;BME280;65885;55.848;35.916;2023-07-22T09:41:10;98804.91;;;29.77;32.89
76940;BME280;65885;55.848;35.916;2023-07-22T09:43:39;98805.16;;;29.89;32.26
76940;BME280;65885;55.848;35.916;2023-07-22T09:46:08;98803.72;;;29.99;30.86
76940;BME280;65885;55.848;35.916;2023-07-22T09:48:42;98807.69;;;29.97;30.02
76940;BME280;65885;55.848;35.916;2023-07-22T09:51:14;98806.19;;;29.88;30.42
76940;BME280;65885;55.848;35.916;2023-07-22T09:53:46;98797.47;;;29.86;31.45
76940;BME280;65885;55.848;35.916;2023-07-22T09:56:15;98799.16;;;30.00;31.52
76940;BME280;65885;55.848;35.916;2023-07-22T09:58:44;98805.69;;;30.19;30.97
76940;BME280;65885;55.848;35.916;2023-07-22T10:01:16;98800.06;;;30.27;29.71
76940;BME280;65885;55.848;35.916;2023-07-22T10:03:48;98810.88;;;30.14;29.30
76940;BME280;65885;55.848;35.916;2023-07-22T10:06:21;98814.28;;;29.81;29.69
76940;BME280;65885;55.848;35.916;2023-07-22T10:08:49;98796.50;;;29.52;31.63
76940;BME280;65885;55.848;35.916;2023-07-22T10:11:19;98798.88;;;29.34;31.71
76940;BME280;65885;55.848;35.916;2023-07-22T10:13:46;98804.97;;;29.14;30.93
76940;BME280;65885;55.848;35.916;2023-07-22T10:16:15;98801.44;;;28.86;31.23
76940;BME280;65885;55.848;35.916;2023-07-22T10:18:44;98810.94;;;28.54;31.32
76940;BME280;65885;55.848;35.916;2023-07-22T10:21:12;98807.50;;;28.24;31.88
76940;BME280;65885;55.848;35.916;2023-07-22T10:23:40;98802.22;;;27.94;32.21
76940;BME280;65885;55.848;35.916;2023-07-22T10:26:08;98805.97;;;27.63;32.74
76940;BME280;65885;55.848;35.916;2023-07-22T10:28:42;98803.06;;;27.29;33.04
76940;BME280;65885;55.848;35.916;2023-07-22T10:31:10;98809.97;;;26.94;32.88
76940;BME280;65885;55.848;35.916;2023-07-22T10:33:38;98809.78;;;26.58;33.92
76940;BME280;65885;55.848;35.916;2023-07-22T10:36:07;98809.00;;;26.26;34.73
76940;BME280;65885;55.848;35.916;2023-07-22T10:38:35;98806.13;;;26.05;35.60
76940;BME280;65885;55.848;35.916;2023-07-22T10:41:11;98813.72;;;26.01;36.95
76940;BME280;65885;55.848;35.916;2023-07-22T10:43:41;98813.94;;;26.14;37.97
76940;BME280;65885;55.848;35.916;2023-07-22T10:46:10;98813.63;;;26.40;37.98
76940;BME280;65885;55.848;35.916;2023-07-22T10:48:39;98801.03;;;26.78;38.06
76940;BME280;65885;55.848;35.916;2023-07-22T10:51:09;98801.94;;;27.23;38.14
76940;BME280;65885;55.848;35.916;2023-07-22T10:53:41;98820.03;;;27.74;37.05
76940;BME280;65885;55.848;35.916;2023-07-22T10:56:12;98799.56;;;28.15;36.49
76940;BME280;65885;55.848;35.916;2023-07-22T10:59:00;98795.91;;;28.66;36.72
76940;BME280;65885;55.848;35.916;2023-07-22T11:01:34;98807.22;;;29.04;34.40
76940;BME280;65885;55.848;35.916;2023-07-22T11:04:10;98800.88;;;29.18;32.73
76940;BME280;65885;55.848;35.916;2023-07-22T11:06:51;98808.09;;;29.11;31.60
76940;BME280;65885;55.848;35.916;2023-07-22T11:09:39;98806.19;;;28.84;32.14
76940;BME280;65885;55.848;35.916;2023-07-22T11:12:11;98803.25;;;28.51;31.80
76940;BME280;65885;55.848;35.916;2023-07-22T11:14:45;98804.50;;;28.12;32.61
76940;BME280;65885;55.848;35.916;2023-07-22T11:17:14;98815.28;;;27.76;33.18
76940;BME280;65885;55.848;35.916;2023-07-22T11:19:43;98811.69;;;27.39;33.55
76940;BME280;65885;55.848;35.916;2023-07-22T11:22:11;98805.50;;;27.01;33.86
76940;BME280;65885;55.848;35.916;2023-07-22T11:24:39;98808.69;;;26.67;34.58
76940;BME280;65885;55.848;35.916;2023-07-22T11:27:07;98809.59;;;26.36;35.50
76940;BME280;65885;55.848;35.916;2023-07-22T11:29:35;98808.09;;;26.11;36.18
76940;BME280;65885;55.848;35.916;2023-07-22T11:32:06;98808.75;;;25.90;36.77
76940;BME280;65885;55.848;35.916;2023-07-22T11:34:33;98799.94;;;25.73;36.99
76940;BME280;65885;55.848;35.916;2023-07-22T11:37:01;98796.63;;;25.63;37.21
76940;BME280;65885;55.848;35.916;2023-07-22T11:39:28;98797.13;;;25.58;37.67
76940;BME280;65885;55.848;35.916;2023-07-22T11:42:00;98792.25;;;25.54;37.95
76940;BME280;65885;55.848;35.916;2023-07-22T11:44:28;98799.50;;;25.53;38.09
76940;BME280;65885;55.848;35.916;2023-07-22T11:46:57;98801.06;;;25.48;38.09
76940;BME280;65885;55.848;35.916;2023-07-22T11:49:27;98813.50;;;25.40;38.43
76940;BME280;65885;55.848;35.916;2023-07-22T11:51:57;98812.00;;;25.30;38.71
76940;BME280;65885;55.848;35.916;2023-07-22T11:54:25;98802.16;;;25.14;39.81
76940;BME280;65885;55.848;35.916;2023-07-22T11:56:53;98795.16;;;24.80;43.01
76940;BME280;65885;55.848;35.916;2023-07-22T11:59:34;98787.84;;;24.50;43.47
76940;BME280;65885;55.848;35.916;2023-07-22T12:02:03;98793.31;;;24.24;44.96
76940;BME280;65885;55.848;35.916;2023-07-22T12:04:33;98788.28;;;23.96;46.00
76940;BME280;65885;55.848;35.916;2023-07-22T12:07:01;98784.03;;;23.77;46.88
76940;BME280;65885;55.848;35.916;2023-07-22T12:09:30;98779.53;;;23.86;46.77
76940;BME280;65885;55.848;35.916;2023-07-22T12:11:58;98783.09;;;24.27;47.41
76940;BME280;65885;55.848;35.916;2023-07-22T12:14:33;98780.03;;;24.96;45.86
76940;BME280;65885;55.848;35.916;2023-07-22T12:17:02;98778.84;;;25.54;44.57
76940;BME280;65885;55.848;35.916;2023-07-22T12:19:30;98778.06;;;26.07;43.38
76940;BME280;65885;55.848;35.916;2023-07-22T12:21:59;98780.91;;;26.51;42.06
76940;BME280;65885;55.848;35.916;2023-07-22T12:24:28;98766.78;;;26.87;41.10
76940;BME280;65885;55.848;35.916;2023-07-22T12:26:56;98779.75;;;27.21;40.14
76940;BME280;65885;55.848;35.916;2023-07-22T12:29:23;98773.31;;;27.52;39.49
76940;BME280;65885;55.848;35.916;2023-07-22T12:31:51;98760.16;;;27.78;38.21
76940;BME280;65885;55.848;35.916;2023-07-22T12:34:19;98760.63;;;28.03;37.20
76940;BME280;65885;55.848;35.916;2023-07-22T12:36:47;98751.91;;;28.23;36.38
76940;BME280;65885;55.848;35.916;2023-07-22T12:39:16;98751.66;;;28.39;35.74
76940;BME280;65885;55.848;35.916;2023-07-22T12:41:43;98745.13;;;28.55;34.19
76940;BME280;65885;55.848;35.916;2023-07-22T12:44:11;98758.47;;;28.63;32.93
76940;BME280;65885;55.848;35.916;2023-07-22T12:46:38;98737.53;;;28.65;32.79
76940;BME280;65885;55.848;35.916;2023-07-22T12:49:05;98749.81;;;28.67;32.67
76940;BME280;65885;55.848;35.916;2023-07-22T12:51:33;98754.56;;;28.65;32.05
76940;BME280;65885;55.848;35.916;2023-07-22T12:54:00;98750.72;;;28.53;31.75
76940;BME280;65885;55.848;35.916;2023-07-22T12:56:29;98761.56;;;28.32;31.61